createdAt,value
2019-01-27T00:01:57.347Z,6.17
2019-01-27T00:04:26.135Z,5.97
2019-01-27T00:06:55.125Z,6.33
2019-01-27T00:09:24.128Z,7.92
2019-01-27T00:11:53.040Z,6.70
2019-01-27T00:14:22.063Z,8.18
2019-01-27T00:16:50.893Z,8.60
2019-01-27T00:19:19.695Z,7.03
2019-01-27T00:21:48.581Z,8.55
2019-01-27T00:24:27.911Z,9.05
2019-01-27T00:26:56.795Z,11.10
2019-01-27T00:29:25.638Z,8.90
2019-01-27T00:31:54.442Z,8.50
2019-01-27T00:34:23.216Z,8.05
2019-01-27T00:36:52.247Z,9.38
2019-01-27T00:39:21.070Z,7.40
2019-01-27T00:41:49.893Z,8.15
2019-01-27T00:44:18.630Z,8.88
2019-01-27T00:46:47.503Z,8.60
2019-01-27T00:49:16.281Z,7.15
2019-01-27T00:51:45.065Z,7.17
2019-01-27T00:54:13.942Z,9.18
2019-01-27T00:56:42.846Z,8.83
2019-01-27T00:59:11.685Z,7.67
2019-01-27T01:01:40.595Z,12.88
2019-01-27T01:04:09.842Z,8.08
2019-01-27T01:06:38.850Z,7.25
2019-01-27T01:09:10.870Z,9.65
2019-01-27T01:11:39.740Z,7.35
2019-01-27T01:14:08.616Z,6.60
2019-01-27T01:16:37.606Z,7.28
2019-01-27T01:19:06.886Z,7.22
2019-01-27T01:21:35.686Z,7.42
2019-01-27T01:24:04.611Z,8.38
2019-01-27T01:26:33.619Z,8.63
2019-01-27T01:29:02.372Z,8.20
2019-01-27T01:31:31.184Z,8.83
2019-01-27T01:34:00.101Z,7.85
2019-01-27T01:36:28.865Z,7.90
2019-01-27T01:38:57.896Z,8.93
2019-01-27T01:41:26.694Z,9.70
2019-01-27T01:43:55.634Z,6.67
2019-01-27T01:46:24.735Z,6.05
2019-01-27T01:48:53.757Z,5.22
2019-01-27T01:51:22.732Z,6.22
2019-01-27T01:53:51.537Z,8.28
2019-01-27T01:56:21.294Z,7.10
2019-01-27T01:58:50.105Z,8.43
2019-01-27T02:01:19.044Z,8.28
2019-01-27T02:03:47.887Z,8.90
2019-01-27T02:06:16.676Z,9.23
2019-01-27T02:08:45.566Z,8.65
2019-01-27T02:11:14.454Z,11.28
2019-01-27T02:13:43.239Z,8.38
2019-01-27T02:16:12.100Z,9.65
2019-01-27T02:18:41.292Z,8.85
2019-01-27T02:21:10.063Z,13.72
2019-01-27T02:23:39.035Z,10.43
2019-01-27T02:26:08.726Z,9.55
2019-01-27T02:28:37.690Z,12.60
2019-01-27T02:31:06.754Z,11.00
2019-01-27T02:33:35.725Z,9.23
2019-01-27T02:36:04.799Z,10.20
2019-01-27T02:38:33.796Z,11.65
2019-01-27T02:41:02.651Z,12.93
2019-01-27T02:43:31.705Z,12.20
2019-01-27T02:46:00.686Z,11.48
2019-01-27T02:48:29.789Z,11.38
2019-01-27T02:50:58.828Z,10.63
2019-01-27T02:53:27.817Z,9.33
2019-01-27T02:55:56.741Z,11.95
2019-01-27T02:58:25.559Z,12.33
2019-01-27T03:00:54.555Z,11.50
2019-01-27T03:03:23.506Z,14.20
2019-01-27T03:06:11.463Z,17.37
2019-01-27T03:09:02.770Z,12.07
2019-01-27T03:11:47.473Z,16.12
2019-01-27T03:14:17.667Z,15.85
2019-01-27T03:16:48.934Z,15.68
2019-01-27T03:19:17.846Z,15.13
2019-01-27T03:21:46.723Z,17.52
2019-01-27T03:24:15.558Z,16.65
2019-01-27T03:26:44.494Z,14.85
2019-01-27T03:29:13.472Z,19.95
2019-01-27T03:31:42.475Z,23.12
2019-01-27T03:34:11.323Z,17.07
2019-01-27T03:36:40.176Z,19.60
2019-01-27T03:39:10.983Z,18.95
2019-01-27T03:41:39.951Z,20.27
2019-01-27T03:44:08.936Z,16.20
2019-01-27T03:46:37.951Z,22.75
2019-01-27T03:49:07.639Z,17.42
2019-01-27T03:51:36.534Z,16.97
2019-01-27T03:54:05.933Z,21.77
2019-01-27T03:56:34.896Z,19.48
2019-01-27T03:59:03.890Z,16.37
2019-01-27T04:01:32.874Z,16.27
2019-01-27T04:04:01.915Z,15.95
2019-01-27T04:06:33.520Z,16.40
2019-01-27T04:09:03.086Z,13.10
2019-01-27T04:11:32.098Z,15.58
2019-01-27T04:14:01.051Z,12.40
2019-01-27T04:16:29.988Z,16.87
2019-01-27T04:19:00.726Z,16.25
2019-01-27T04:21:29.654Z,19.32
2019-01-27T04:23:58.504Z,13.58
2019-01-27T04:26:27.408Z,14.18
2019-01-27T04:28:56.283Z,14.20
2019-01-27T04:31:25.153Z,14.53
2019-01-27T04:33:57.076Z,15.60
2019-01-27T04:36:26.151Z,17.82
2019-01-27T04:38:54.912Z,17.15
2019-01-27T04:41:23.894Z,12.88
2019-01-27T04:43:54.112Z,10.72
2019-01-27T04:46:22.991Z,15.85
2019-01-27T04:48:54.807Z,13.68
2019-01-27T04:51:23.763Z,18.70
2019-01-27T04:53:52.572Z,16.35
2019-01-27T04:56:21.414Z,10.90
2019-01-27T04:58:50.306Z,10.78
2019-01-27T05:01:19.390Z,14.95
2019-01-27T05:03:59.802Z,17.07
2019-01-27T05:06:28.708Z,19.73
2019-01-27T05:08:57.810Z,13.50
2019-01-27T05:11:26.697Z,8.85
2019-01-27T05:13:58.583Z,11.80
2019-01-27T05:16:27.586Z,12.40
2019-01-27T05:18:56.556Z,20.55
2019-01-27T05:21:25.466Z,16.35
2019-01-27T05:23:54.359Z,11.12
2019-01-27T05:26:23.138Z,11.73
2019-01-27T05:28:52.221Z,9.80
2019-01-27T05:31:21.232Z,13.50
2019-01-27T05:33:50.295Z,9.00
2019-01-27T05:36:19.774Z,15.93
2019-01-27T05:38:48.580Z,18.60
2019-01-27T05:41:17.579Z,17.60
2019-01-27T05:43:46.355Z,13.58
2019-01-27T05:46:15.208Z,17.02
2019-01-27T05:48:44.032Z,15.72
2019-01-27T05:51:12.922Z,21.10
2019-01-27T05:53:41.837Z,16.42
2019-01-27T05:56:10.908Z,14.00
2019-01-27T05:58:39.957Z,19.17
2019-01-27T06:01:08.831Z,13.28
2019-01-27T06:03:37.743Z,15.95
2019-01-27T06:06:06.720Z,14.00
2019-01-27T06:08:35.674Z,14.35
2019-01-27T06:11:04.626Z,16.27
2019-01-27T06:13:33.451Z,15.88
2019-01-27T06:16:02.237Z,15.88
2019-01-27T06:18:31.082Z,16.50
2019-01-27T06:21:01.216Z,20.10
2019-01-27T06:23:30.059Z,19.55
2019-01-27T06:25:58.879Z,13.25
2019-01-27T06:28:27.702Z,10.93
2019-01-27T06:30:56.562Z,12.20
2019-01-27T06:34:02.663Z,16.55
2019-01-27T06:36:31.477Z,14.25
2019-01-27T06:39:02.282Z,13.55
2019-01-27T06:41:32.462Z,15.03
2019-01-27T06:44:01.470Z,10.38
2019-01-27T06:46:30.295Z,16.07
2019-01-27T06:48:59.303Z,12.68
2019-01-27T06:51:28.310Z,12.82
2019-01-27T06:53:57.123Z,18.57
2019-01-27T06:56:25.943Z,17.92
2019-01-27T06:59:12.767Z,16.97
2019-01-27T07:01:46.321Z,17.30
2019-01-27T07:04:19.846Z,20.85
2019-01-27T07:07:01.654Z,15.72
2019-01-27T07:09:49.242Z,18.57
2019-01-27T07:12:35.442Z,17.00
2019-01-27T07:15:30.682Z,21.52
2019-01-27T07:18:13.074Z,11.08
2019-01-27T07:21:00.022Z,11.75
2019-01-27T07:24:00.141Z,13.70
2019-01-27T07:26:46.658Z,17.25
2019-01-27T07:29:27.390Z,13.90
2019-01-27T07:32:21.074Z,11.90
2019-01-27T07:35:17.722Z,12.68
2019-01-27T07:38:05.534Z,12.15
2019-01-27T07:40:56.342Z,9.48
2019-01-27T07:43:33.301Z,10.93
2019-01-27T07:46:19.958Z,15.83
2019-01-27T07:49:14.101Z,11.50
2019-01-27T07:52:04.774Z,11.48
2019-01-27T07:54:52.854Z,14.38
2019-01-27T07:57:33.603Z,12.45
2019-01-27T08:00:15.402Z,13.65
2019-01-27T08:03:12.173Z,12.82
2019-01-27T08:06:13.927Z,18.48
2019-01-27T08:08:51.627Z,12.50
2019-01-27T08:11:31.355Z,13.75
2019-01-27T08:14:11.910Z,19.23
2019-01-27T08:16:50.907Z,13.10
2019-01-27T08:19:29.669Z,11.55
2019-01-27T08:22:32.689Z,14.55
2019-01-27T08:25:15.900Z,14.05
2019-01-27T08:28:01.660Z,13.68
2019-01-27T08:30:48.678Z,14.47
2019-01-27T08:33:32.518Z,14.87
2019-01-27T08:36:10.154Z,14.40
2019-01-27T08:38:55.402Z,13.68
2019-01-27T08:41:30.634Z,11.88
2019-01-27T08:44:10.182Z,15.83
2019-01-27T08:46:49.215Z,8.60
2019-01-27T08:49:17.958Z,15.40
2019-01-27T08:51:46.697Z,15.15
2019-01-27T08:54:15.437Z,12.43
2019-01-27T08:56:44.260Z,17.25
2019-01-27T08:59:13.075Z,14.63
2019-01-27T09:02:19.334Z,18.17
2019-01-27T09:04:52.769Z,16.00
2019-01-27T09:07:43.452Z,14.03
2019-01-27T09:10:40.152Z,15.20
2019-01-27T09:13:22.118Z,16.48
2019-01-27T09:16:07.907Z,19.45
2019-01-27T09:18:43.939Z,15.93
2019-01-27T09:21:29.485Z,36.28
2019-01-27T09:24:16.035Z,31.85
2019-01-27T09:26:53.021Z,21.17
2019-01-27T09:29:44.015Z,23.83
2019-01-27T09:32:35.890Z,28.40
2019-01-27T09:35:12.018Z,26.00
2019-01-27T09:37:58.847Z,35.23
2019-01-27T09:40:36.830Z,35.60
2019-01-27T09:43:17.738Z,32.98
2019-01-27T09:46:05.142Z,37.25
2019-01-27T09:48:46.625Z,26.40
2019-01-27T09:51:43.646Z,26.00
2019-01-27T09:54:49.789Z,24.40
2019-01-27T09:57:34.827Z,22.27
2019-01-27T10:00:18.260Z,28.12
2019-01-27T10:03:01.534Z,28.27
2019-01-27T10:05:46.469Z,32.48
2019-01-27T10:08:28.922Z,25.40
2019-01-27T10:11:06.597Z,26.70
2019-01-27T10:14:03.863Z,21.27
2019-01-27T10:16:54.640Z,19.07
2019-01-27T10:20:00.550Z,23.20
2019-01-27T10:22:54.574Z,12.80
2019-01-27T10:25:43.482Z,13.70
2019-01-27T10:28:31.320Z,13.00
2019-01-27T10:31:19.263Z,15.95
2019-01-27T10:34:11.643Z,18.80
2019-01-27T10:36:58.289Z,22.75
2019-01-27T10:39:43.787Z,16.48
2019-01-27T10:42:37.627Z,20.12
2019-01-27T10:45:28.929Z,16.10
2019-01-27T10:48:35.370Z,20.35
2019-01-27T10:51:16.478Z,20.20
2019-01-27T10:54:04.267Z,20.52
2019-01-27T10:56:55.838Z,24.07
2019-01-27T10:59:58.919Z,20.17
2019-01-27T11:02:49.585Z,25.77
2019-01-27T11:05:36.133Z,36.10
2019-01-27T11:08:12.639Z,34.35
2019-01-27T11:11:00.495Z,27.93
2019-01-27T11:13:38.877Z,27.58
2019-01-27T11:16:25.522Z,31.62
2019-01-27T11:19:12.179Z,22.95
2019-01-27T11:21:58.726Z,35.58
2019-01-27T11:24:35.458Z,20.57
2019-01-27T11:27:22.010Z,27.30
2019-01-27T11:29:58.337Z,23.15
2019-01-27T11:32:49.204Z,25.43
2019-01-27T11:35:36.579Z,19.90
2019-01-27T11:38:39.752Z,19.07
2019-01-27T11:41:18.694Z,22.62
2019-01-27T11:44:09.571Z,19.52
2019-01-27T11:46:50.902Z,20.90
2019-01-27T11:49:37.377Z,18.32
2019-01-27T11:52:15.413Z,16.07
2019-01-27T11:54:41.745Z,17.82
2019-01-27T11:57:10.459Z,16.32
2019-01-27T11:59:39.190Z,24.30
2019-01-27T12:02:07.921Z,17.23
2019-01-27T12:04:36.666Z,22.90
2019-01-27T12:07:05.382Z,22.37
2019-01-27T12:09:34.211Z,20.23
2019-01-27T12:12:03.017Z,22.48
2019-01-27T12:14:31.726Z,24.47
2019-01-27T12:17:00.497Z,20.85
2019-01-27T12:19:29.275Z,42.83
2019-01-27T12:21:58.062Z,38.73
2019-01-27T12:24:26.765Z,18.07
2019-01-27T12:26:55.515Z,30.10
2019-01-27T12:29:25.569Z,24.23
2019-01-27T12:31:54.418Z,16.42
2019-01-27T12:34:23.138Z,19.85
2019-01-27T12:36:51.837Z,23.32
2019-01-27T12:39:20.555Z,23.12
2019-01-27T12:41:49.382Z,26.62
2019-01-27T12:44:18.183Z,23.30
2019-01-27T12:46:46.948Z,29.45
2019-01-27T12:49:17.024Z,15.75
2019-01-27T12:51:45.720Z,15.90
2019-01-27T12:54:16.776Z,22.67
2019-01-27T12:56:45.517Z,25.27
2019-01-27T12:59:14.240Z,23.45
2019-01-27T13:01:43.127Z,21.70
2019-01-27T13:04:12.026Z,15.78
2019-01-27T13:06:41.148Z,23.07
2019-01-27T13:09:10.821Z,19.20
2019-01-27T13:11:39.595Z,15.10
2019-01-27T13:14:10.815Z,18.02
2019-01-27T13:16:39.550Z,20.82
2019-01-27T13:19:14.051Z,16.27
2019-01-27T13:21:42.813Z,14.30
2019-01-27T13:24:11.624Z,12.03
2019-01-27T13:26:40.330Z,17.15
2019-01-27T13:29:09.046Z,10.00
2019-01-27T13:31:37.777Z,20.80
2019-01-27T13:34:06.518Z,18.23
2019-01-27T13:36:35.464Z,11.57
2019-01-27T13:39:07.367Z,19.05
2019-01-27T13:41:36.196Z,15.10
2019-01-27T13:44:04.993Z,13.45
2019-01-27T13:46:33.728Z,20.02
2019-01-27T13:49:02.519Z,19.57
2019-01-27T13:51:32.127Z,13.20
2019-01-27T13:54:00.836Z,14.68
2019-01-27T13:56:29.543Z,11.85
2019-01-27T13:58:58.285Z,13.50
2019-01-27T14:01:27.015Z,15.58
2019-01-27T14:03:55.722Z,16.35
2019-01-27T14:06:24.450Z,12.13
2019-01-27T14:08:55.855Z,12.85
2019-01-27T14:11:25.383Z,12.10
2019-01-27T14:13:55.138Z,21.80
2019-01-27T14:16:35.159Z,16.60
2019-01-27T14:19:04.963Z,12.18
2019-01-27T14:21:35.941Z,15.68
2019-01-27T14:24:04.896Z,21.02
2019-01-27T14:26:33.622Z,12.63
2019-01-27T14:29:03.268Z,10.38
2019-01-27T14:31:32.850Z,14.03
2019-01-27T14:34:01.555Z,14.60
2019-01-27T14:36:30.442Z,16.45
2019-01-27T14:38:59.139Z,15.50
2019-01-27T14:41:27.841Z,10.82
2019-01-27T14:43:56.575Z,13.55
2019-01-27T14:46:25.545Z,11.30
2019-01-27T14:48:54.393Z,9.55
2019-01-27T14:51:23.182Z,13.00
2019-01-27T14:53:51.889Z,11.97
2019-01-27T14:56:20.645Z,11.48
2019-01-27T14:58:49.546Z,9.00
2019-01-27T15:01:18.350Z,12.58
2019-01-27T15:03:47.058Z,13.22
2019-01-27T15:06:15.786Z,17.23
2019-01-27T15:08:46.033Z,13.50
2019-01-27T15:11:14.914Z,17.80
2019-01-27T15:13:43.670Z,16.75
2019-01-27T15:16:12.423Z,20.68
2019-01-27T15:18:41.226Z,13.50
2019-01-27T15:21:20.543Z,11.48
2019-01-27T15:23:49.255Z,18.70
2019-01-27T15:26:17.948Z,17.60
2019-01-27T15:28:46.779Z,21.40
2019-01-27T15:31:15.504Z,19.12
2019-01-27T15:33:44.230Z,12.75
2019-01-27T15:36:12.945Z,18.02
2019-01-27T15:38:41.787Z,14.38
2019-01-27T15:41:11.415Z,17.45
2019-01-27T15:43:40.149Z,16.57
2019-01-27T15:46:09.216Z,13.80
2019-01-27T15:48:38.036Z,12.58
2019-01-27T15:51:06.860Z,14.95
2019-01-27T15:53:35.563Z,15.93
2019-01-27T15:56:04.325Z,16.15
2019-01-27T15:58:33.070Z,13.28
2019-01-27T16:01:02.064Z,13.80
2019-01-27T16:03:30.769Z,21.87
2019-01-27T16:06:01.396Z,13.90
2019-01-27T16:08:32.766Z,17.67
2019-01-27T16:11:01.494Z,13.43
2019-01-27T16:13:30.253Z,11.57
2019-01-27T16:15:59.018Z,10.82
2019-01-27T16:18:27.785Z,11.00
2019-01-27T16:20:56.530Z,10.75
2019-01-27T16:23:42.975Z,10.20
2019-01-27T16:26:11.715Z,11.70
2019-01-27T16:28:40.574Z,11.88
2019-01-27T16:31:19.754Z,14.35
2019-01-27T16:34:06.362Z,12.50
2019-01-27T16:36:35.133Z,8.63
2019-01-27T16:39:06.490Z,10.65
2019-01-27T16:41:35.200Z,12.85
2019-01-27T16:44:03.978Z,14.05
2019-01-27T16:46:32.766Z,12.75
2019-01-27T16:49:02.906Z,14.07
2019-01-27T16:51:31.645Z,12.85
2019-01-27T16:54:00.449Z,9.15
2019-01-27T16:56:29.148Z,17.35
2019-01-27T16:58:59.491Z,11.35
2019-01-27T17:01:28.399Z,13.62
2019-01-27T17:03:57.231Z,8.63
2019-01-27T17:06:26.086Z,10.68
2019-01-27T17:08:54.923Z,14.75
2019-01-27T17:11:23.694Z,10.63
2019-01-27T17:13:52.706Z,15.88
2019-01-27T17:16:21.468Z,12.82
2019-01-27T17:18:52.115Z,12.23
2019-01-27T17:21:20.901Z,15.48
2019-01-27T17:23:49.642Z,9.48
2019-01-27T17:26:18.417Z,11.38
2019-01-27T17:28:47.154Z,11.15
2019-01-27T17:31:15.866Z,7.55
2019-01-27T17:33:44.618Z,8.18
2019-01-27T17:36:14.490Z,13.45
2019-01-27T17:38:43.239Z,17.60
2019-01-27T17:41:12.007Z,12.10
2019-01-27T17:43:40.718Z,15.05
2019-01-27T17:46:09.450Z,7.35
2019-01-27T17:48:38.163Z,18.25
2019-01-27T17:51:07.035Z,14.33
2019-01-27T17:53:46.400Z,12.47
2019-01-27T17:56:15.139Z,7.83
2019-01-27T17:59:11.442Z,4.58
2019-01-27T18:02:01.334Z,9.73
2019-01-27T18:04:49.128Z,8.10
2019-01-27T18:07:29.126Z,12.40
2019-01-27T18:10:25.851Z,10.68
2019-01-27T18:13:16.462Z,11.28
2019-01-27T18:15:46.274Z,6.70
2019-01-27T18:18:14.989Z,7.75
2019-01-27T18:20:43.842Z,11.38
2019-01-27T18:23:12.599Z,8.23
2019-01-27T18:25:41.342Z,11.88
2019-01-27T18:28:10.079Z,13.55
2019-01-27T18:30:38.934Z,10.78
2019-01-27T18:33:08.018Z,9.43
2019-01-27T18:35:36.743Z,14.10
2019-01-27T18:38:05.540Z,10.30
2019-01-27T18:40:34.337Z,9.45
2019-01-27T18:43:03.068Z,12.80
2019-01-27T18:45:32.298Z,19.25
2019-01-27T18:48:03.911Z,16.05
2019-01-27T18:50:32.731Z,20.65
2019-01-27T18:53:16.578Z,7.62
2019-01-27T18:56:04.457Z,10.03
2019-01-27T18:58:42.114Z,13.08
2019-01-27T19:01:25.666Z,10.20
2019-01-27T19:04:01.019Z,8.35
2019-01-27T19:07:01.254Z,13.05
2019-01-27T19:09:51.527Z,12.20
2019-01-27T19:12:37.026Z,14.13
2019-01-27T19:15:26.292Z,10.68
2019-01-27T19:18:09.275Z,15.83
2019-01-27T19:21:06.655Z,16.95
2019-01-27T19:23:57.842Z,10.50
2019-01-27T19:26:46.532Z,18.73
2019-01-27T19:29:34.394Z,13.05
2019-01-27T19:32:08.711Z,14.65
2019-01-27T19:34:59.422Z,11.75
2019-01-27T19:37:35.511Z,13.55
2019-01-27T19:40:36.599Z,10.70
2019-01-27T19:43:24.083Z,11.12
2019-01-27T19:46:06.987Z,15.10
2019-01-27T19:48:48.193Z,11.90
2019-01-27T19:51:36.000Z,13.20
2019-01-27T19:54:13.899Z,15.28
2019-01-27T19:57:07.203Z,19.52
2019-01-27T19:59:55.042Z,15.90
2019-01-27T20:02:50.636Z,10.28
2019-01-27T20:05:34.804Z,18.90
2019-01-27T20:08:21.187Z,10.05
2019-01-27T20:11:07.834Z,16.82
2019-01-27T20:14:04.866Z,12.40
2019-01-27T20:16:46.002Z,10.32
2019-01-27T20:19:36.950Z,16.60
2019-01-27T20:22:17.076Z,16.67
2019-01-27T20:25:09.002Z,21.02
2019-01-27T20:27:55.566Z,14.07
2019-01-27T20:30:42.256Z,18.00
2019-01-27T20:33:23.410Z,14.18
2019-01-27T20:36:14.197Z,14.55
2019-01-27T20:39:05.079Z,16.20
2019-01-27T20:41:58.937Z,16.00
2019-01-27T20:44:39.005Z,14.95
2019-01-27T20:47:14.203Z,16.73
2019-01-27T20:50:02.145Z,14.07
2019-01-27T20:52:40.677Z,11.75
2019-01-27T20:55:28.572Z,17.40
2019-01-27T20:58:06.485Z,17.02
2019-01-27T21:00:46.270Z,19.70
2019-01-27T21:03:43.429Z,15.65
2019-01-27T21:06:34.398Z,14.00
2019-01-27T21:09:23.773Z,17.70
2019-01-27T21:12:10.359Z,22.27
2019-01-27T21:14:46.922Z,17.42
2019-01-27T21:17:28.810Z,17.23
2019-01-27T21:20:05.210Z,19.32
2019-01-27T21:22:33.974Z,14.20
2019-01-27T21:25:02.709Z,14.70
2019-01-27T21:27:31.473Z,10.35
2019-01-27T21:30:01.167Z,16.50
2019-01-27T21:32:29.914Z,16.62
2019-01-27T21:34:58.674Z,15.50
2019-01-27T21:37:27.386Z,22.50
2019-01-27T21:39:56.092Z,18.65
2019-01-27T21:42:24.960Z,17.15
2019-01-27T21:44:53.713Z,20.75
2019-01-27T21:47:22.542Z,21.70
2019-01-27T21:49:51.514Z,15.32
2019-01-27T21:52:20.308Z,11.93
2019-01-27T21:54:49.431Z,18.57
2019-01-27T21:57:18.167Z,20.88
2019-01-27T21:59:46.962Z,24.32
2019-01-27T22:02:15.807Z,18.70
2019-01-27T22:04:44.558Z,21.48
2019-01-27T22:07:13.294Z,21.07
2019-01-27T22:09:42.023Z,24.55
2019-01-27T22:12:10.754Z,25.40
2019-01-27T22:14:39.493Z,22.67
2019-01-27T22:17:08.274Z,22.00
2019-01-27T22:19:37.015Z,24.90
2019-01-27T22:22:05.716Z,22.82
2019-01-27T22:24:34.531Z,14.63
2019-01-27T22:27:03.404Z,15.75
2019-01-27T22:29:33.227Z,27.07
2019-01-27T22:32:02.288Z,20.88
2019-01-27T22:34:31.020Z,21.48
2019-01-27T22:36:59.825Z,17.85
2019-01-27T22:39:28.574Z,23.05
2019-01-27T22:41:57.383Z,28.23
2019-01-27T22:44:26.095Z,31.97
2019-01-27T22:46:54.822Z,23.30
2019-01-27T22:49:23.699Z,29.98
2019-01-27T22:51:52.414Z,41.65
2019-01-27T22:54:21.186Z,33.53
2019-01-27T22:56:49.913Z,31.42
2019-01-27T22:59:18.690Z,25.32
2019-01-27T23:01:47.406Z,22.73
2019-01-27T23:04:16.163Z,20.45
2019-01-27T23:06:44.890Z,24.02
2019-01-27T23:09:18.223Z,22.27
2019-01-27T23:11:48.354Z,18.77
2019-01-27T23:14:17.086Z,26.52
2019-01-27T23:16:45.817Z,23.07
2019-01-27T23:19:14.566Z,24.02
2019-01-27T23:21:43.303Z,27.58
2019-01-27T23:24:12.046Z,27.40
2019-01-27T23:26:40.796Z,26.42
2019-01-27T23:29:09.586Z,32.95
2019-01-27T23:31:38.402Z,28.38
2019-01-27T23:34:07.351Z,27.35
2019-01-27T23:36:36.152Z,28.12
2019-01-27T23:39:08.486Z,27.70
2019-01-27T23:41:37.222Z,32.75
2019-01-27T23:44:05.983Z,26.77
2019-01-27T23:46:34.786Z,24.87
2019-01-27T23:49:03.515Z,26.90
2019-01-27T23:51:32.224Z,24.98
2019-01-27T23:54:00.942Z,32.83
2019-01-27T23:56:29.642Z,22.58
2019-01-27T23:58:58.403Z,24.43
